Newberry, Pennsylvania
Current Conditions -  °F | °C
As of 6:54 AM on Sunday 23 Nov 2014 (Local Time) from KIPT Reporting Station
Light Rain Light Rain  
Wind Chill: 33°   Ceiling: 9000
Heat Index: 33°   Visibility: 6mi
Dew Point: 29°   Wind: 0mph
Humidity: 85%   Direction: NA
Pressure: 30.18"   Gusts: NA
Location:  41.246°N, 77.0167°W
Report Text: KIPT 231154Z 00000KT 6SM -RA BR SCT070 OVC090 01/M02 A3018 RMK AO2 RAB52 SLP223 P0000 60000 70002 T00061017 10006 21006 53009
Loading
Personal Weather Stations






























Interactive Weather Map New forecast layout! Learn more

10-Day Weather Forecast

Advertisements
Track Severe Weather on mobile